createdAt,value
2023-01-21T00:03:43.698Z,10.70
2023-01-21T00:13:46.018Z,9.00
2023-01-21T00:23:48.486Z,10.50
2023-01-21T00:33:50.664Z,8.70
2023-01-21T00:43:55.274Z,9.23
2023-01-21T00:53:57.361Z,7.17
2023-01-21T01:03:59.399Z,8.87
2023-01-21T01:14:06.352Z,8.60
2023-01-21T01:24:08.782Z,4.43
2023-01-21T01:34:15.865Z,5.80
2023-01-21T01:44:56.499Z,7.03
2023-01-21T01:55:02.431Z,6.27
2023-01-21T02:05:11.909Z,4.93
2023-01-21T02:15:16.253Z,5.97
2023-01-21T02:25:36.551Z,6.77
2023-01-21T02:35:43.933Z,6.70
2023-01-21T02:45:55.981Z,7.17
2023-01-21T02:56:02.487Z,8.57
2023-01-21T03:06:16.795Z,7.03
2023-01-21T03:16:41.508Z,6.70
2023-01-21T03:26:48.217Z,6.43
2023-01-21T03:37:20.629Z,6.13
2023-01-21T03:47:32.933Z,6.50
2023-01-21T03:57:37.549Z,8.30
2023-01-21T04:07:41.916Z,6.10
2023-01-21T04:17:43.944Z,5.17
2023-01-21T04:27:50.534Z,3.00
2023-01-21T04:37:55.658Z,2.00
2023-01-21T04:48:00.351Z,2.47
2023-01-21T04:58:02.430Z,2.90
2023-01-21T05:08:04.597Z,1.17
2023-01-21T05:18:11.545Z,2.60
2023-01-21T05:28:21.123Z,0.73
2023-01-21T05:38:25.372Z,0.90
2023-01-21T05:48:29.679Z,1.43
2023-01-21T05:58:36.890Z,1.43
2023-01-21T06:08:41.226Z,1.70
2023-01-21T06:18:43.788Z,1.57
2023-01-21T06:28:46.123Z,2.53
2023-01-21T06:38:50.490Z,0.97
2023-01-21T06:48:53.927Z,1.67
2023-01-21T06:59:02.767Z,1.70
2023-01-21T07:09:07.853Z,2.07
2023-01-21T07:19:17.176Z,3.27
2023-01-21T07:29:19.648Z,2.43
2023-01-21T07:39:26.227Z,1.63
2023-01-21T07:49:28.292Z,3.10
2023-01-21T07:59:33.407Z,1.67
2023-01-21T08:09:40.346Z,1.67
2023-01-21T08:19:42.357Z,2.43
2023-01-21T08:29:48.663Z,3.03
2023-01-21T08:39:53.176Z,1.53
2023-01-21T08:49:55.248Z,2.07
2023-01-21T09:00:02.316Z,1.77
2023-01-21T09:10:06.431Z,5.90
2023-01-21T09:20:09.384Z,5.00
2023-01-21T09:30:11.726Z,5.27
2023-01-21T09:40:16.667Z,5.90
2023-01-21T09:50:22.734Z,4.00
2023-01-21T10:00:33.728Z,4.73
2023-01-21T10:11:15.980Z,5.73
2023-01-21T10:21:31.359Z,12.87
2023-01-21T10:31:40.142Z,11.00
2023-01-21T10:42:10.523Z,8.20
2023-01-21T10:53:02.821Z,8.10
2023-01-21T11:03:33.291Z,10.80
2023-01-21T11:13:37.817Z,7.90
2023-01-21T11:23:42.303Z,16.27
2023-01-21T11:33:44.431Z,15.13
2023-01-21T11:43:49.165Z,11.83
2023-01-21T11:54:06.969Z,14.37
2023-01-21T12:04:13.165Z,32.70
2023-01-21T12:14:32.637Z,17.20
2023-01-21T12:25:05.808Z,24.03
2023-01-21T12:35:23.795Z,17.63
2023-01-21T12:45:31.369Z,30.13
2023-01-21T12:55:58.259Z,8.37
2023-01-21T13:06:02.929Z,25.40
2023-01-21T13:16:08.496Z,21.67
2023-01-21T13:26:36.953Z,32.57
2023-01-21T13:36:47.305Z,30.97
2023-01-21T13:47:26.995Z,14.83
2023-01-21T13:57:44.068Z,23.37
2023-01-21T14:08:12.758Z,36.70
2023-01-21T14:18:24.629Z,19.43
2023-01-21T14:28:56.990Z,45.97
2023-01-21T14:39:19.255Z,51.77
2023-01-21T14:49:39.857Z,37.93
2023-01-21T14:59:46.523Z,17.97
2023-01-21T15:09:55.104Z,60.03
2023-01-21T15:20:01.392Z,28.60
2023-01-21T15:30:03.501Z,25.47
2023-01-21T15:40:38.229Z,18.80
2023-01-21T15:50:45.173Z,125.93
2023-01-21T16:00:57.195Z,84.03
2023-01-21T16:11:30.487Z,71.87
2023-01-21T16:21:36.865Z,65.93
2023-01-21T16:31:50.930Z,68.93
2023-01-21T16:42:06.878Z,42.53
2023-01-21T16:52:13.849Z,57.10
2023-01-21T17:02:28.639Z,22.47
2023-01-21T17:12:36.219Z,98.07
2023-01-21T17:22:44.207Z,73.63
2023-01-21T17:32:55.459Z,100.57
2023-01-21T17:43:09.729Z,52.33
2023-01-21T17:53:22.655Z,27.63
2023-01-21T18:03:25.679Z,96.83
2023-01-21T18:13:30.315Z,135.43
2023-01-21T18:23:35.070Z,28.60
2023-01-21T18:33:39.721Z,69.07
2023-01-21T18:43:44.312Z,127.43
2023-01-21T18:53:46.659Z,141.80
2023-01-21T19:03:55.198Z,162.63
2023-01-21T19:13:57.241Z,145.80
2023-01-21T19:23:59.309Z,160.47
2023-01-21T19:34:06.492Z,17.07
2023-01-21T19:44:08.660Z,116.70
2023-01-21T19:54:13.324Z,200.93
2023-01-21T20:04:17.968Z,51.83
2023-01-21T20:14:22.752Z,144.50
2023-01-21T20:24:30.393Z,197.37
2023-01-21T20:34:37.707Z,57.23
2023-01-21T20:44:39.822Z,180.27
2023-01-21T20:54:41.923Z,41.87
2023-01-21T21:04:46.555Z,104.97
2023-01-21T21:14:48.656Z,70.77
2023-01-21T21:24:50.774Z,93.60
2023-01-21T21:34:55.330Z,104.23
2023-01-21T21:44:57.392Z,110.27
2023-01-21T21:55:01.669Z,128.30
2023-01-21T22:05:06.514Z,63.20
2023-01-21T22:15:11.289Z,110.43
2023-01-21T22:25:13.467Z,185.30
2023-01-21T22:35:15.855Z,74.53
2023-01-21T22:45:20.670Z,80.87
2023-01-21T22:55:27.457Z,49.70
2023-01-21T23:05:30.022Z,29.50
2023-01-21T23:15:32.123Z,126.40
2023-01-21T23:25:34.209Z,95.73
2023-01-21T23:35:41.339Z,78.30
2023-01-21T23:45:45.937Z,128.27
2023-01-21T23:55:48.041Z,101.27
